Hannersville, North Carolina
Current Conditions -  °F | °C
As of 4:35 PM on Saturday 20 Dec 2014 (Local Time) from KEXX Reporting Station
Clear Clear  
Wind Chill: 41°   Ceiling: Unl
Heat Index: 41°   Visibility: 10mi
Dew Point: 33°   Wind: 0mph
Humidity: 73%   Direction: NA
Pressure: 30.22"   Gusts: NA
Location:  35.7974°N, 80.2541°W
Report Text: KEXX 202135Z AUTO 00000KT 10SM CLR 05/01 A3022 RMK AO2 T00510007
Loading
Personal Weather Stations






























Interactive Weather Map New forecast layout! Learn more

10-Day Weather Forecast

Advertisements
Track Severe Weather on mobile